sensor_id;sensor_type;location;lat;lon;timestamp;pressure;altitude;pressure_sealevel;temperature;humidity
46223;BME280;31943;51.410;7.564;2023-08-21T00:00:17;100919.56;;;21.01;63.57
46223;BME280;31943;51.410;7.564;2023-08-21T00:02:43;100928.53;;;20.96;63.78
46223;BME280;31943;51.410;7.564;2023-08-21T00:05:09;100925.09;;;20.89;64.51
46223;BME280;31943;51.410;7.564;2023-08-21T00:07:34;100917.19;;;20.87;64.02
46223;BME280;31943;51.410;7.564;2023-08-21T00:10:00;100914.59;;;20.86;64.65
46223;BME280;31943;51.410;7.564;2023-08-21T00:12:29;100917.25;;;20.86;64.56
46223;BME280;31943;51.410;7.564;2023-08-21T00:14:57;100914.59;;;20.84;64.14
46223;BME280;31943;51.410;7.564;2023-08-21T00:17:22;100912.00;;;20.81;63.94
46223;BME280;31943;51.410;7.564;2023-08-21T00:19:48;100911.19;;;20.78;63.80
46223;BME280;31943;51.410;7.564;2023-08-21T00:22:13;100914.81;;;20.75;64.46
46223;BME280;31943;51.410;7.564;2023-08-21T00:24:39;100917.47;;;20.73;64.32
46223;BME280;31943;51.410;7.564;2023-08-21T00:27:05;100908.75;;;20.70;64.26
46223;BME280;31943;51.410;7.564;2023-08-21T00:29:32;100912.34;;;20.66;64.51
46223;BME280;31943;51.410;7.564;2023-08-21T00:31:58;100923.00;;;20.64;64.42
46223;BME280;31943;51.410;7.564;2023-08-21T00:34:24;100923.00;;;20.64;64.41
46223;BME280;31943;51.410;7.564;2023-08-21T00:36:50;100921.25;;;20.63;64.65
46223;BME280;31943;51.410;7.564;2023-08-21T00:39:16;100924.75;;;20.64;64.32
46223;BME280;31943;51.410;7.564;2023-08-21T00:41:42;100923.91;;;20.62;64.64
46223;BME280;31943;51.410;7.564;2023-08-21T00:44:07;100929.28;;;20.60;64.32
46223;BME280;31943;51.410;7.564;2023-08-21T00:46:34;100924.88;;;20.56;64.54
46223;BME280;31943;51.410;7.564;2023-08-21T00:49:01;100925.81;;;20.53;63.91
46223;BME280;31943;51.410;7.564;2023-08-21T00:51:26;100926.75;;;20.52;64.68
46223;BME280;31943;51.410;7.564;2023-08-21T00:53:52;100925.00;;;20.50;64.08
46223;BME280;31943;51.410;7.564;2023-08-21T00:56:18;100916.25;;;20.46;64.34
46223;BME280;31943;51.410;7.564;2023-08-21T00:58:44;100928.63;;;20.46;64.21
46223;BME280;31943;51.410;7.564;2023-08-21T01:01:11;100925.13;;;20.44;64.52
46223;BME280;31943;51.410;7.564;2023-08-21T01:03:39;100929.59;;;20.42;64.47
46223;BME280;31943;51.410;7.564;2023-08-21T01:06:04;100921.66;;;20.40;64.47
46223;BME280;31943;51.410;7.564;2023-08-21T01:08:37;100926.09;;;20.40;64.74
46223;BME280;31943;51.410;7.564;2023-08-21T01:11:09;100920.81;;;20.38;64.57
46223;BME280;31943;51.410;7.564;2023-08-21T01:13:47;100926.22;;;20.35;64.82
46223;BME280;31943;51.410;7.564;2023-08-21T01:16:13;100924.47;;;20.32;65.05
46223;BME280;31943;51.410;7.564;2023-08-21T01:18:42;100924.53;;;20.29;64.92
46223;BME280;31943;51.410;7.564;2023-08-21T01:21:09;100931.66;;;20.27;64.91
46223;BME280;31943;51.410;7.564;2023-08-21T01:23:36;100933.44;;;20.27;65.18
46223;BME280;31943;51.410;7.564;2023-08-21T01:26:02;100939.63;;;20.26;65.23
46223;BME280;31943;51.410;7.564;2023-08-21T01:28:29;100948.50;;;20.25;65.01
46223;BME280;31943;51.410;7.564;2023-08-21T01:31:00;100948.53;;;20.23;64.93
46223;BME280;31943;51.410;7.564;2023-08-21T01:33:28;100952.06;;;20.21;64.94
46223;BME280;31943;51.410;7.564;2023-08-21T01:35:57;100960.97;;;20.18;65.16
46223;BME280;31943;51.410;7.564;2023-08-21T01:38:24;100958.41;;;20.15;64.74
46223;BME280;31943;51.410;7.564;2023-08-21T01:40:51;100955.75;;;20.13;64.76
46223;BME280;31943;51.410;7.564;2023-08-21T01:43:18;100953.13;;;20.13;64.53
46223;BME280;31943;51.410;7.564;2023-08-21T01:45:44;100951.34;;;20.12;65.01
46223;BME280;31943;51.410;7.564;2023-08-21T01:48:11;100956.66;;;20.12;64.55
46223;BME280;31943;51.410;7.564;2023-08-21T01:50:36;100953.19;;;20.09;64.74
46223;BME280;31943;51.410;7.564;2023-08-21T01:53:02;100958.53;;;20.07;65.08
46223;BME280;31943;51.410;7.564;2023-08-21T01:55:29;100959.41;;;20.06;65.18
46223;BME280;31943;51.410;7.564;2023-08-21T01:57:58;100957.69;;;20.04;65.09
46223;BME280;31943;51.410;7.564;2023-08-21T02:00:24;100954.22;;;20.02;65.13
46223;BME280;31943;51.410;7.564;2023-08-21T02:02:50;100954.22;;;20.00;64.99
46223;BME280;31943;51.410;7.564;2023-08-21T02:05:16;100949.88;;;19.98;64.92
46223;BME280;31943;51.410;7.564;2023-08-21T02:07:42;100948.09;;;19.97;65.20
46223;BME280;31943;51.410;7.564;2023-08-21T02:10:08;100945.47;;;19.95;65.14
46223;BME280;31943;51.410;7.564;2023-08-21T02:12:34;100941.13;;;19.92;65.19
46223;BME280;31943;51.410;7.564;2023-08-21T02:15:02;100940.28;;;19.90;65.18
46223;BME280;31943;51.410;7.564;2023-08-21T02:17:27;100943.84;;;19.88;64.93
46223;BME280;31943;51.410;7.564;2023-08-21T02:19:53;100937.72;;;19.84;65.16
46223;BME280;31943;51.410;7.564;2023-08-21T02:22:19;100935.13;;;19.81;65.31
46223;BME280;31943;51.410;7.564;2023-08-21T02:24:44;100933.41;;;19.79;65.18
46223;BME280;31943;51.410;7.564;2023-08-21T02:27:10;100930.78;;;19.77;65.36
46223;BME280;31943;51.410;7.564;2023-08-21T02:29:36;100928.22;;;19.74;65.24
46223;BME280;31943;51.410;7.564;2023-08-21T02:32:03;100925.56;;;19.72;65.23
46223;BME280;31943;51.410;7.564;2023-08-21T02:34:29;100930.88;;;19.71;65.28
46223;BME280;31943;51.410;7.564;2023-08-21T02:36:55;100922.09;;;19.67;65.16
46223;BME280;31943;51.410;7.564;2023-08-21T02:39:21;100929.16;;;19.67;65.40
46223;BME280;31943;51.410;7.564;2023-08-21T02:41:47;100923.91;;;19.64;65.41
46223;BME280;31943;51.410;7.564;2023-08-21T02:44:13;100920.41;;;19.62;65.42
46223;BME280;31943;51.410;7.564;2023-08-21T02:46:39;100923.97;;;19.61;65.70
46223;BME280;31943;51.410;7.564;2023-08-21T02:49:06;100923.97;;;19.61;65.36
46223;BME280;31943;51.410;7.564;2023-08-21T02:51:33;100928.41;;;19.60;65.45
46223;BME280;31943;51.410;7.564;2023-08-21T02:53:59;100931.91;;;19.62;65.69
46223;BME280;31943;51.410;7.564;2023-08-21T02:56:25;100931.06;;;19.60;65.70
46223;BME280;31943;51.410;7.564;2023-08-21T02:58:50;100925.78;;;19.57;65.41
46223;BME280;31943;51.410;7.564;2023-08-21T03:01:16;100930.25;;;19.55;65.44
46223;BME280;31943;51.410;7.564;2023-08-21T03:03:42;100934.66;;;19.54;65.38
46223;BME280;31943;51.410;7.564;2023-08-21T03:06:10;100928.47;;;19.55;65.63
46223;BME280;31943;51.410;7.564;2023-08-21T03:08:36;100932.91;;;19.53;65.45
46223;BME280;31943;51.410;7.564;2023-08-21T03:11:03;100929.41;;;19.51;65.33
46223;BME280;31943;51.410;7.564;2023-08-21T03:13:29;100933.84;;;19.49;65.67
46223;BME280;31943;51.410;7.564;2023-08-21T03:15:55;100936.53;;;19.46;65.42
46223;BME280;31943;51.410;7.564;2023-08-21T03:18:20;100933.94;;;19.45;66.09
46223;BME280;31943;51.410;7.564;2023-08-21T03:20:47;100937.47;;;19.45;65.78
46223;BME280;31943;51.410;7.564;2023-08-21T03:23:14;100933.94;;;19.45;65.56
46223;BME280;31943;51.410;7.564;2023-08-21T03:25:39;100934.81;;;19.44;65.90
46223;BME280;31943;51.410;7.564;2023-08-21T03:28:05;100939.28;;;19.42;65.77
46223;BME280;31943;51.410;7.564;2023-08-21T03:30:32;100936.63;;;19.40;65.92
46223;BME280;31943;51.410;7.564;2023-08-21T03:32:58;100930.47;;;19.40;65.94
46223;BME280;31943;51.410;7.564;2023-08-21T03:35:25;100923.47;;;19.39;65.74
46223;BME280;31943;51.410;7.564;2023-08-21T03:37:50;100929.63;;;19.38;66.20
46223;BME280;31943;51.410;7.564;2023-08-21T03:40:18;100920.81;;;19.37;65.94
46223;BME280;31943;51.410;7.564;2023-08-21T03:42:44;100919.06;;;19.36;66.54
46223;BME280;31943;51.410;7.564;2023-08-21T03:45:09;100919.09;;;19.34;66.11
46223;BME280;31943;51.410;7.564;2023-08-21T03:47:35;100920.00;;;19.33;66.30
46223;BME280;31943;51.410;7.564;2023-08-21T03:50:01;100927.94;;;19.32;66.15
46223;BME280;31943;51.410;7.564;2023-08-21T03:52:26;100920.03;;;19.30;66.41
46223;BME280;31943;51.410;7.564;2023-08-21T03:54:53;100933.31;;;19.29;66.38
46223;BME280;31943;51.410;7.564;2023-08-21T03:57:22;100937.75;;;19.27;66.49
46223;BME280;31943;51.410;7.564;2023-08-21T03:59:48;100937.75;;;19.27;66.42
46223;BME280;31943;51.410;7.564;2023-08-21T04:02:15;100935.09;;;19.27;66.16
46223;BME280;31943;51.410;7.564;2023-08-21T04:04:40;100938.63;;;19.27;66.25
46223;BME280;31943;51.410;7.564;2023-08-21T04:07:06;100938.63;;;19.27;66.17
46223;BME280;31943;51.410;7.564;2023-08-21T04:09:32;100923.63;;;19.25;66.07
46223;BME280;31943;51.410;7.564;2023-08-21T04:11:58;100926.34;;;19.23;66.41
46223;BME280;31943;51.410;7.564;2023-08-21T04:14:26;100928.06;;;19.23;66.02
46223;BME280;31943;51.410;7.564;2023-08-21T04:16:52;100925.44;;;19.23;65.92
46223;BME280;31943;51.410;7.564;2023-08-21T04:19:18;100931.63;;;19.22;66.21
46223;BME280;31943;51.410;7.564;2023-08-21T04:21:43;100934.31;;;19.20;66.27
46223;BME280;31943;51.410;7.564;2023-08-21T04:24:10;100929.91;;;19.19;66.36
46223;BME280;31943;51.410;7.564;2023-08-21T04:26:36;100936.97;;;19.19;66.23
46223;BME280;31943;51.410;7.564;2023-08-21T04:29:02;100938.72;;;19.20;66.25
46223;BME280;31943;51.410;7.564;2023-08-21T04:31:29;100933.44;;;19.20;66.38
46223;BME280;31943;51.410;7.564;2023-08-21T04:33:55;100937.81;;;19.21;66.22
46223;BME280;31943;51.410;7.564;2023-08-21T04:36:21;100940.47;;;19.21;66.15
46223;BME280;31943;51.410;7.564;2023-08-21T04:38:46;100947.50;;;19.22;66.01
46223;BME280;31943;51.410;7.564;2023-08-21T04:41:12;100944.88;;;19.20;65.90
46223;BME280;31943;51.410;7.564;2023-08-21T04:43:38;100950.16;;;19.23;65.88
46223;BME280;31943;51.410;7.564;2023-08-21T04:46:04;100941.28;;;19.24;65.92
46223;BME280;31943;51.410;7.564;2023-08-21T04:48:32;100946.59;;;19.24;66.29
46223;BME280;31943;51.410;7.564;2023-08-21T04:50:59;100945.72;;;19.22;66.29
46223;BME280;31943;51.410;7.564;2023-08-21T04:53:26;100951.03;;;19.21;66.64
46223;BME280;31943;51.410;7.564;2023-08-21T04:55:51;100951.88;;;19.23;66.98
46223;BME280;31943;51.410;7.564;2023-08-21T04:58:18;100950.16;;;19.22;66.79
46223;BME280;31943;51.410;7.564;2023-08-21T05:00:44;100952.78;;;19.23;66.66
46223;BME280;31943;51.410;7.564;2023-08-21T05:03:10;100959.81;;;19.23;66.85
46223;BME280;31943;51.410;7.564;2023-08-21T05:05:37;100955.38;;;19.25;67.14
46223;BME280;31943;51.410;7.564;2023-08-21T05:08:03;100957.13;;;19.27;67.18
46223;BME280;31943;51.410;7.564;2023-08-21T05:10:29;100962.38;;;19.30;67.05
46223;BME280;31943;51.410;7.564;2023-08-21T05:12:56;100962.34;;;19.33;67.11
46223;BME280;31943;51.410;7.564;2023-08-21T05:15:23;100959.63;;;19.36;66.97
46223;BME280;31943;51.410;7.564;2023-08-21T05:17:49;100967.63;;;19.35;67.18
46223;BME280;31943;51.410;7.564;2023-08-21T05:20:14;100960.53;;;19.35;67.10
46223;BME280;31943;51.410;7.564;2023-08-21T05:22:42;100958.72;;;19.39;67.12
46223;BME280;31943;51.410;7.564;2023-08-21T05:25:09;100962.25;;;19.38;66.99
46223;BME280;31943;51.410;7.564;2023-08-21T05:27:35;100966.75;;;19.33;67.44
46223;BME280;31943;51.410;7.564;2023-08-21T05:30:02;100964.16;;;19.30;67.33
46223;BME280;31943;51.410;7.564;2023-08-21T05:32:28;100972.06;;;19.31;67.64
46223;BME280;31943;51.410;7.564;2023-08-21T05:34:54;100967.63;;;19.33;67.22
46223;BME280;31943;51.410;7.564;2023-08-21T05:37:19;100962.31;;;19.35;67.69
46223;BME280;31943;51.410;7.564;2023-08-21T05:39:47;100964.91;;;19.36;67.86
46223;BME280;31943;51.410;7.564;2023-08-21T05:42:12;100963.19;;;19.35;67.57
46223;BME280;31943;51.410;7.564;2023-08-21T05:44:39;100964.06;;;19.34;68.04
46223;BME280;31943;51.410;7.564;2023-08-21T05:47:05;100975.56;;;19.35;68.43
46223;BME280;31943;51.410;7.564;2023-08-21T05:49:31;100969.31;;;19.39;68.33
46223;BME280;31943;51.410;7.564;2023-08-21T05:51:57;100965.72;;;19.43;68.22
46223;BME280;31943;51.410;7.564;2023-08-21T05:54:24;100971.84;;;19.47;67.96
46223;BME280;31943;51.410;7.564;2023-08-21T05:56:51;100970.91;;;19.49;68.03
46223;BME280;31943;51.410;7.564;2023-08-21T05:59:26;100958.50;;;19.54;68.52
46223;BME280;31943;51.410;7.564;2023-08-21T06:01:52;100956.69;;;19.56;68.51
46223;BME280;31943;51.410;7.564;2023-08-21T06:04:18;100955.72;;;19.62;68.70
46223;BME280;31943;51.410;7.564;2023-08-21T06:06:43;100954.78;;;19.66;68.34
46223;BME280;31943;51.410;7.564;2023-08-21T06:09:09;100961.75;;;19.70;68.63
46223;BME280;31943;51.410;7.564;2023-08-21T06:11:35;100962.63;;;19.74;68.80
46223;BME280;31943;51.410;7.564;2023-08-21T06:14:02;100962.56;;;19.77;68.98
46223;BME280;31943;51.410;7.564;2023-08-21T06:16:28;100962.44;;;19.83;68.74
46223;BME280;31943;51.410;7.564;2023-08-21T06:18:54;100968.59;;;19.87;68.63
46223;BME280;31943;51.410;7.564;2023-08-21T06:21:20;100969.38;;;19.93;68.38
46223;BME280;31943;51.410;7.564;2023-08-21T06:23:46;100965.69;;;20.01;68.45
46223;BME280;31943;51.410;7.564;2023-08-21T06:26:12;100975.28;;;20.08;68.06
46223;BME280;31943;51.410;7.564;2023-08-21T06:28:47;100971.66;;;20.13;68.09
46223;BME280;31943;51.410;7.564;2023-08-21T06:31:15;100982.97;;;20.23;67.63
46223;BME280;31943;51.410;7.564;2023-08-21T06:33:40;100990.69;;;20.35;68.04
46223;BME280;31943;51.410;7.564;2023-08-21T06:36:08;100978.94;;;20.49;67.43
46223;BME280;31943;51.410;7.564;2023-08-21T06:38:35;100978.78;;;20.58;67.21
46223;BME280;31943;51.410;7.564;2023-08-21T06:41:01;100972.56;;;20.61;66.95
46223;BME280;31943;51.410;7.564;2023-08-21T06:43:26;100977.88;;;20.58;67.17
46223;BME280;31943;51.410;7.564;2023-08-21T06:45:52;100978.72;;;20.61;67.18
46223;BME280;31943;51.410;7.564;2023-08-21T06:48:19;100977.75;;;20.67;67.48
46223;BME280;31943;51.410;7.564;2023-08-21T06:50:46;100983.91;;;20.67;67.42
46223;BME280;31943;51.410;7.564;2023-08-21T06:53:12;100980.41;;;20.65;67.32
46223;BME280;31943;51.410;7.564;2023-08-21T06:55:38;100978.63;;;20.66;67.35
46223;BME280;31943;51.410;7.564;2023-08-21T06:58:04;100975.97;;;20.66;67.57
46223;BME280;31943;51.410;7.564;2023-08-21T07:00:30;100975.81;;;20.73;67.88
46223;BME280;31943;51.410;7.564;2023-08-21T07:02:55;100979.41;;;20.72;67.56
46223;BME280;31943;51.410;7.564;2023-08-21T07:05:22;100972.31;;;20.73;67.90
46223;BME280;31943;51.410;7.564;2023-08-21T07:07:48;100973.97;;;20.79;67.86
46223;BME280;31943;51.410;7.564;2023-08-21T07:10:13;100971.13;;;20.88;67.43
46223;BME280;31943;51.410;7.564;2023-08-21T07:12:39;100968.31;;;20.96;67.29
46223;BME280;31943;51.410;7.564;2023-08-21T07:15:05;100971.69;;;21.02;67.22
46223;BME280;31943;51.410;7.564;2023-08-21T07:17:31;100977.72;;;21.09;67.40
46223;BME280;31943;51.410;7.564;2023-08-21T07:19:58;100974.03;;;21.18;66.84
46223;BME280;31943;51.410;7.564;2023-08-21T07:22:25;100971.19;;;21.25;66.49
46223;BME280;31943;51.410;7.564;2023-08-21T07:24:51;100974.59;;;21.30;66.53
46223;BME280;31943;51.410;7.564;2023-08-21T07:30:00;100968.75;;;21.55;66.13
46223;BME280;31943;51.410;7.564;2023-08-21T07:32:26;100967.53;;;21.70;65.38
46223;BME280;31943;51.410;7.564;2023-08-21T07:34:52;100969.84;;;21.84;65.13
46223;BME280;31943;51.410;7.564;2023-08-21T07:37:18;100975.50;;;22.04;65.17
46223;BME280;31943;51.410;7.564;2023-08-21T07:39:45;100975.06;;;22.21;65.44
46223;BME280;31943;51.410;7.564;2023-08-21T07:42:13;100970.59;;;22.23;64.78
46223;BME280;31943;51.410;7.564;2023-08-21T07:44:39;100967.47;;;22.40;64.43
46223;BME280;31943;51.410;7.564;2023-08-21T07:47:04;100968.59;;;22.64;63.47
46223;BME280;31943;51.410;7.564;2023-08-21T07:49:30;100965.13;;;22.92;63.62
46223;BME280;31943;51.410;7.564;2023-08-21T07:51:56;100971.47;;;23.18;62.31
46223;BME280;31943;51.410;7.564;2023-08-21T07:54:22;100970.16;;;23.33;61.58
46223;BME280;31943;51.410;7.564;2023-08-21T07:56:49;100970.72;;;23.42;61.82
46223;BME280;31943;51.410;7.564;2023-08-21T07:59:15;100969.53;;;23.51;60.95
46223;BME280;31943;51.410;7.564;2023-08-21T08:01:41;100965.59;;;23.63;60.79
46223;BME280;31943;51.410;7.564;2023-08-21T08:04:07;100971.34;;;23.77;60.37
46223;BME280;31943;51.410;7.564;2023-08-21T08:06:33;100968.25;;;23.91;59.32
46223;BME280;31943;51.410;7.564;2023-08-21T08:08:59;100969.63;;;24.03;57.71
46223;BME280;31943;51.410;7.564;2023-08-21T08:11:25;100973.56;;;24.18;58.02
46223;BME280;31943;51.410;7.564;2023-08-21T08:13:52;100969.31;;;24.37;58.20
46223;BME280;31943;51.410;7.564;2023-08-21T08:16:18;100966.81;;;24.58;58.26
46223;BME280;31943;51.410;7.564;2023-08-21T08:18:43;100963.56;;;24.73;57.95
46223;BME280;31943;51.410;7.564;2023-08-21T08:21:09;100964.16;;;24.81;55.73
46223;BME280;31943;51.410;7.564;2023-08-21T08:23:35;100957.72;;;24.87;55.98
46223;BME280;31943;51.410;7.564;2023-08-21T08:26:01;100968.25;;;24.92;56.34
46223;BME280;31943;51.410;7.564;2023-08-21T08:28:27;100962.91;;;24.92;56.90
46223;BME280;31943;51.410;7.564;2023-08-21T08:30:55;100967.59;;;24.85;56.90
46223;BME280;31943;51.410;7.564;2023-08-21T08:33:22;100960.34;;;24.89;56.90
46223;BME280;31943;51.410;7.564;2023-08-21T08:35:48;100959.13;;;24.97;56.89
46223;BME280;31943;51.410;7.564;2023-08-21T08:40:51;100958.94;;;24.78;57.28
46223;BME280;31943;51.410;7.564;2023-08-21T08:43:19;100959.84;;;24.54;58.01
46223;BME280;31943;51.410;7.564;2023-08-21T08:45:47;100960.50;;;24.35;58.26
46223;BME280;31943;51.410;7.564;2023-08-21T08:48:16;100954.81;;;24.21;58.50
46223;BME280;31943;51.410;7.564;2023-08-21T08:50:44;100962.88;;;24.18;59.20
46223;BME280;31943;51.410;7.564;2023-08-21T08:53:10;100955.38;;;24.04;58.99
46223;BME280;31943;51.410;7.564;2023-08-21T08:55:37;100958.22;;;23.99;58.69
46223;BME280;31943;51.410;7.564;2023-08-21T08:58:03;100958.97;;;24.28;58.34
46223;BME280;31943;51.410;7.564;2023-08-21T09:00:28;100961.38;;;24.61;57.35
46223;BME280;31943;51.410;7.564;2023-08-21T09:02:55;100956.00;;;24.86;56.96
46223;BME280;31943;51.410;7.564;2023-08-21T09:05:22;100956.22;;;25.03;55.62
46223;BME280;31943;51.410;7.564;2023-08-21T09:08:02;100951.13;;;25.19;54.87
46223;BME280;31943;51.410;7.564;2023-08-21T09:10:27;100955.09;;;25.33;54.34
46223;BME280;31943;51.410;7.564;2023-08-21T09:12:54;100952.47;;;25.53;54.53
46223;BME280;31943;51.410;7.564;2023-08-21T09:15:19;100943.75;;;25.70;54.34
46223;BME280;31943;51.410;7.564;2023-08-21T09:17:53;100952.00;;;25.86;53.59
46223;BME280;31943;51.410;7.564;2023-08-21T09:20:18;100952.25;;;26.02;53.73
46223;BME280;31943;51.410;7.564;2023-08-21T09:22:52;100951.16;;;26.06;53.14
46223;BME280;31943;51.410;7.564;2023-08-21T09:25:18;100956.13;;;26.15;53.47
46223;BME280;31943;51.410;7.564;2023-08-21T09:27:44;100952.97;;;26.26;54.19
46223;BME280;31943;51.410;7.564;2023-08-21T09:30:11;100951.41;;;26.41;53.83
46223;BME280;31943;51.410;7.564;2023-08-21T09:32:52;100948.13;;;26.55;51.74
46223;BME280;31943;51.410;7.564;2023-08-21T09:35:18;100949.53;;;26.63;51.59
46223;BME280;31943;51.410;7.564;2023-08-21T09:37:48;100947.28;;;26.73;52.33
46223;BME280;31943;51.410;7.564;2023-08-21T09:40:14;100940.44;;;26.87;51.76
46223;BME280;31943;51.410;7.564;2023-08-21T09:42:41;100947.31;;;26.92;50.63
46223;BME280;31943;51.410;7.564;2023-08-21T09:45:09;100945.88;;;27.04;50.52
46223;BME280;31943;51.410;7.564;2023-08-21T09:47:35;100944.47;;;27.14;50.72
46223;BME280;31943;51.410;7.564;2023-08-21T09:50:01;100944.34;;;27.17;48.95
46223;BME280;31943;51.410;7.564;2023-08-21T09:52:28;100937.47;;;27.12;48.96
46223;BME280;31943;51.410;7.564;2023-08-21T09:54:57;100936.22;;;27.19;49.99
46223;BME280;31943;51.410;7.564;2023-08-21T09:57:23;100935.50;;;27.34;49.66
46223;BME280;31943;51.410;7.564;2023-08-21T09:59:52;100946.94;;;27.38;48.64
46223;BME280;31943;51.410;7.564;2023-08-21T10:05:28;100940.50;;;27.23;48.84
46223;BME280;31943;51.410;7.564;2023-08-21T10:07:55;100943.09;;;27.25;48.55
46223;BME280;31943;51.410;7.564;2023-08-21T10:10:22;100935.28;;;27.20;48.41
46223;BME280;31943;51.410;7.564;2023-08-21T10:12:49;100925.59;;;27.17;49.29
46223;BME280;31943;51.410;7.564;2023-08-21T10:15:15;100931.22;;;27.30;48.53
46223;BME280;31943;51.410;7.564;2023-08-21T10:17:43;100930.06;;;27.36;48.22
46223;BME280;31943;51.410;7.564;2023-08-21T10:20:09;100920.22;;;27.36;48.71
46223;BME280;31943;51.410;7.564;2023-08-21T10:22:45;100922.13;;;27.52;48.84
46223;BME280;31943;51.410;7.564;2023-08-21T10:25:15;100927.09;;;27.59;49.43
46223;BME280;31943;51.410;7.564;2023-08-21T10:27:43;100926.09;;;27.62;47.83
46223;BME280;31943;51.410;7.564;2023-08-21T10:30:16;100922.78;;;27.57;48.54
46223;BME280;31943;51.410;7.564;2023-08-21T10:32:45;100927.81;;;27.63;48.94
46223;BME280;31943;51.410;7.564;2023-08-21T10:35:14;100924.34;;;27.61;47.89
46223;BME280;31943;51.410;7.564;2023-08-21T10:38:07;100929.41;;;27.67;47.50
46223;BME280;31943;51.410;7.564;2023-08-21T10:40:33;100917.44;;;27.74;48.05
46223;BME280;31943;51.410;7.564;2023-08-21T10:43:00;100919.53;;;27.85;47.89
46223;BME280;31943;51.410;7.564;2023-08-21T10:45:26;100935.53;;;27.88;47.18
46223;BME280;31943;51.410;7.564;2023-08-21T10:47:52;100940.81;;;27.90;47.13
46223;BME280;31943;51.410;7.564;2023-08-21T10:50:18;100936.16;;;27.93;47.55
46223;BME280;31943;51.410;7.564;2023-08-21T10:52:44;100923.94;;;28.05;47.39
46223;BME280;31943;51.410;7.564;2023-08-21T10:55:11;100929.03;;;28.27;46.76
46223;BME280;31943;51.410;7.564;2023-08-21T10:57:38;100932.31;;;28.32;46.50
46223;BME280;31943;51.410;7.564;2023-08-21T11:00:07;100927.06;;;28.13;45.73
46223;BME280;31943;51.410;7.564;2023-08-21T11:02:35;100922.66;;;27.95;47.43
46223;BME280;31943;51.410;7.564;2023-08-21T11:05:01;100926.72;;;27.85;47.45
46223;BME280;31943;51.410;7.564;2023-08-21T11:07:27;100924.28;;;27.80;48.81
46223;BME280;31943;51.410;7.564;2023-08-21T11:09:53;100926.66;;;27.86;49.55
46223;BME280;31943;51.410;7.564;2023-08-21T11:12:20;100927.59;;;27.85;47.91
46223;BME280;31943;51.410;7.564;2023-08-21T11:14:46;100924.50;;;27.75;47.78
46223;BME280;31943;51.410;7.564;2023-08-21T11:17:16;100930.84;;;27.74;47.49
46223;BME280;31943;51.410;7.564;2023-08-21T11:19:42;100933.97;;;27.65;47.35
46223;BME280;31943;51.410;7.564;2023-08-21T11:22:08;100936.19;;;27.57;47.58
46223;BME280;31943;51.410;7.564;2023-08-21T11:24:42;100932.84;;;27.52;47.49
46223;BME280;31943;51.410;7.564;2023-08-21T11:27:09;100940.66;;;27.39;47.87
46223;BME280;31943;51.410;7.564;2023-08-21T11:29:39;100934.88;;;27.29;48.28
46223;BME280;31943;51.410;7.564;2023-08-21T11:32:10;100932.59;;;27.39;48.49
46223;BME280;31943;51.410;7.564;2023-08-21T11:34:37;100928.13;;;27.57;48.15
46223;BME280;31943;51.410;7.564;2023-08-21T11:37:04;100932.88;;;27.69;47.91
46223;BME280;31943;51.410;7.564;2023-08-21T11:39:39;100926.72;;;27.67;47.09
46223;BME280;31943;51.410;7.564;2023-08-21T11:42:09;100933.44;;;27.76;48.35
46223;BME280;31943;51.410;7.564;2023-08-21T11:44:39;100932.47;;;27.77;47.53
46223;BME280;31943;51.410;7.564;2023-08-21T11:47:05;100923.41;;;27.79;47.37
46223;BME280;31943;51.410;7.564;2023-08-21T11:49:38;100934.69;;;27.86;47.24
46223;BME280;31943;51.410;7.564;2023-08-21T11:52:05;100933.56;;;27.92;48.22
46223;BME280;31943;51.410;7.564;2023-08-21T11:54:33;100925.69;;;28.22;47.20
46223;BME280;31943;51.410;7.564;2023-08-21T11:57:05;100937.16;;;28.08;46.21
46223;BME280;31943;51.410;7.564;2023-08-21T11:59:31;100921.63;;;28.15;45.87
46223;BME280;31943;51.410;7.564;2023-08-21T12:01:57;100922.69;;;28.28;46.57
46223;BME280;31943;51.410;7.564;2023-08-21T12:04:23;100923.63;;;28.45;47.14
46223;BME280;31943;51.410;7.564;2023-08-21T12:06:52;100918.91;;;28.66;46.96
46223;BME280;31943;51.410;7.564;2023-08-21T12:09:20;100914.94;;;28.89;45.78
46223;BME280;31943;51.410;7.564;2023-08-21T12:11:47;100917.81;;;29.02;44.95
46223;BME280;31943;51.410;7.564;2023-08-21T12:14:13;100919.31;;;28.91;44.83
46223;BME280;31943;51.410;7.564;2023-08-21T12:16:39;100922.06;;;28.90;44.96
46223;BME280;31943;51.410;7.564;2023-08-21T12:19:05;100916.50;;;28.93;45.34
46223;BME280;31943;51.410;7.564;2023-08-21T12:21:32;100922.41;;;28.84;45.39
46223;BME280;31943;51.410;7.564;2023-08-21T12:23:59;100913.94;;;28.91;44.66
46223;BME280;31943;51.410;7.564;2023-08-21T12:26:26;100919.88;;;28.81;44.54
46223;BME280;31943;51.410;7.564;2023-08-21T12:28:51;100915.63;;;28.76;46.05
46223;BME280;31943;51.410;7.564;2023-08-21T12:31:17;100912.59;;;28.98;46.22
46223;BME280;31943;51.410;7.564;2023-08-21T12:33:43;100912.47;;;29.17;44.91
46223;BME280;31943;51.410;7.564;2023-08-21T12:36:08;100910.97;;;29.28;43.93
46223;BME280;31943;51.410;7.564;2023-08-21T12:38:34;100906.03;;;29.20;43.46
46223;BME280;31943;51.410;7.564;2023-08-21T12:41:23;100904.91;;;29.24;44.51
46223;BME280;31943;51.410;7.564;2023-08-21T12:43:49;100906.09;;;29.03;44.40
46223;BME280;31943;51.410;7.564;2023-08-21T12:46:14;100901.88;;;29.14;43.94
46223;BME280;31943;51.410;7.564;2023-08-21T12:48:40;100908.38;;;29.26;43.54
46223;BME280;31943;51.410;7.564;2023-08-21T12:51:07;100908.94;;;29.17;44.36
46223;BME280;31943;51.410;7.564;2023-08-21T12:53:32;100896.56;;;28.97;44.38
46223;BME280;31943;51.410;7.564;2023-08-21T12:55:58;100905.75;;;29.09;43.86